createdAt,value
2019-01-27T00:01:58.097Z,-4.40
2019-01-27T00:04:27.439Z,-4.30
2019-01-27T00:06:56.850Z,-4.30
2019-01-27T00:09:26.185Z,-4.40
2019-01-27T00:11:55.523Z,-4.40
2019-01-27T00:14:24.938Z,-4.40
2019-01-27T00:16:54.350Z,-4.60
2019-01-27T00:19:23.686Z,-4.50
2019-01-27T00:21:53.007Z,-4.60
2019-01-27T00:24:22.341Z,-4.80
2019-01-27T00:26:51.742Z,-4.80
2019-01-27T00:29:40.118Z,-4.90
2019-01-27T00:32:09.442Z,-5.00
2019-01-27T00:34:38.770Z,-5.00
2019-01-27T00:37:27.158Z,-5.20
2019-01-27T00:40:15.651Z,-5.20
2019-01-27T00:42:45.386Z,-5.30
2019-01-27T00:45:16.014Z,-5.20
2019-01-27T00:48:04.518Z,-5.20
2019-01-27T00:50:53.019Z,-5.30
2019-01-27T00:56:27.763Z,-5.20
2019-01-27T00:58:57.089Z,-5.30
2019-01-27T01:01:45.478Z,-5.30
2019-01-27T01:04:33.864Z,-5.40
2019-01-27T01:10:22.723Z,-5.60
2019-01-27T01:16:11.242Z,-5.70
2019-01-27T01:18:59.618Z,-5.80
2019-01-27T01:30:45.427Z,-5.90
2019-01-27T01:33:33.827Z,-5.90
2019-01-27T01:36:22.278Z,-6.00
2019-01-27T01:41:56.938Z,-6.00
2019-01-27T01:44:45.334Z,-6.00
2019-01-27T01:47:14.734Z,-5.90
2019-01-27T01:50:03.119Z,-5.90
2019-01-27T01:55:37.530Z,-6.00
2019-01-27T01:58:25.918Z,-5.90
2019-01-27T02:16:21.746Z,-6.20
2019-01-27T02:19:10.134Z,-6.20
2019-01-27T02:21:58.518Z,-6.20
2019-01-27T02:30:38.006Z,-6.40
2019-01-27T02:33:26.386Z,-6.40
2019-01-27T02:36:14.866Z,-6.40
2019-01-27T02:44:54.160Z,-6.40
2019-01-27T02:47:42.609Z,-6.40
2019-01-27T02:50:30.982Z,-6.40
2019-01-27T02:56:19.962Z,-6.40
2019-01-27T03:11:24.148Z,-6.70
2019-01-27T03:14:12.520Z,-6.70
2019-01-27T03:16:59.258Z,-6.80
2019-01-27T03:19:45.938Z,-6.80
2019-01-27T03:22:31.151Z,-6.80
2019-01-27T03:31:10.538Z,-6.90
2019-01-27T03:33:39.936Z,-6.90
2019-01-27T03:36:28.327Z,-7.00
2019-01-27T03:38:57.653Z,-7.00
2019-01-27T03:41:46.090Z,-7.00
2019-01-27T03:44:34.476Z,-7.00
2019-01-27T05:01:09.058Z,-7.70
2019-01-27T05:09:58.917Z,-7.80
2019-01-27T05:12:47.295Z,-7.70
2019-01-27T05:15:33.881Z,-7.70
2019-01-27T05:18:20.399Z,-7.70
2019-01-27T05:21:07.147Z,-7.80
2019-01-27T05:23:52.361Z,-7.80
2019-01-27T05:35:52.447Z,-7.90
2019-01-27T05:54:02.728Z,-8.00
2019-01-27T05:56:56.469Z,-8.00
2019-01-27T06:17:54.535Z,-8.20
2019-01-27T06:20:42.930Z,-8.20
2019-01-27T06:50:59.262Z,-8.50
2019-01-27T06:53:47.638Z,-8.40
2019-01-27T06:56:36.031Z,-8.50
2019-01-27T07:08:47.996Z,-8.40
2019-01-27T07:39:34.491Z,-8.00
2019-01-27T07:42:21.486Z,-7.90
2019-01-27T07:45:12.635Z,-7.90
2019-01-27T07:47:59.291Z,-7.90
2019-01-27T07:50:53.634Z,-7.80
2019-01-27T07:53:41.978Z,-7.80
2019-01-27T07:56:42.418Z,-7.80
2019-01-27T07:59:19.239Z,-7.80
2019-01-27T08:02:07.513Z,-7.60
2019-01-27T08:05:10.446Z,-7.60
2019-01-27T08:07:57.010Z,-7.50
2019-01-27T08:10:45.328Z,-7.50
2019-01-27T08:13:32.266Z,-7.50
2019-01-27T08:16:20.614Z,-7.40
2019-01-27T08:22:32.303Z,-7.30
2019-01-27T08:25:20.570Z,-7.30
2019-01-27T08:28:30.703Z,-7.20
2019-01-27T08:31:31.479Z,-7.10
2019-01-27T08:55:31.364Z,-6.70
2019-01-27T08:58:00.690Z,-6.60
2019-01-27T09:28:17.991Z,-5.90
2019-01-27T09:31:31.294Z,-6.00
2019-01-27T09:34:13.380Z,-5.90
2019-01-27T09:36:55.797Z,-5.90
2019-01-27T09:39:42.543Z,-5.90
2019-01-27T09:42:31.120Z,-5.80
2019-01-27T09:45:06.519Z,-5.70
2019-01-27T09:47:47.970Z,-5.60
2019-01-27T09:50:28.278Z,-5.60
2019-01-27T09:53:15.771Z,-5.60
2019-01-27T09:56:10.207Z,-5.60
2019-01-27T09:59:01.586Z,-5.60
2019-01-27T10:01:35.770Z,-5.60
2019-01-27T10:04:17.866Z,-5.70
2019-01-27T10:07:06.131Z,-5.70
2019-01-27T10:10:06.601Z,-5.60
2019-01-27T10:12:47.903Z,-5.60
2019-01-27T10:24:54.582Z,-5.50
2019-01-27T10:49:26.862Z,-4.70
2019-01-27T10:52:21.211Z,-4.70
2019-01-27T10:55:27.662Z,-4.60
2019-01-27T10:58:15.955Z,-4.60
2019-01-27T11:13:36.112Z,-4.50
2019-01-27T11:16:33.467Z,-4.50
2019-01-27T11:19:24.565Z,-4.40
2019-01-27T11:22:21.346Z,-4.40
2019-01-27T11:25:07.823Z,-4.40
2019-01-27T11:28:01.039Z,-4.40
2019-01-27T11:30:38.769Z,-4.30
2019-01-27T11:39:49.492Z,-4.30
2019-01-27T11:42:37.767Z,-4.20
2019-01-27T11:45:37.918Z,-4.10
2019-01-27T11:51:51.062Z,-4.00
2019-01-27T11:54:39.454Z,-4.00
2019-01-27T11:57:08.807Z,-4.00
2019-01-27T12:02:34.575Z,-4.00
2019-01-27T12:05:04.511Z,-4.00
2019-01-27T12:07:33.859Z,-4.10
2019-01-27T12:10:03.310Z,-4.00
2019-01-27T12:12:32.646Z,-3.90
2019-01-27T12:15:01.979Z,-3.90
2019-01-27T12:17:31.413Z,-4.00
2019-01-27T12:20:00.823Z,-4.00
2019-01-27T12:22:30.247Z,-3.90
2019-01-27T12:24:59.581Z,-3.90
2019-01-27T12:27:29.022Z,-3.80
2019-01-27T12:29:58.426Z,-3.70
2019-01-27T12:32:27.754Z,-3.70
2019-01-27T12:34:57.083Z,-3.80
2019-01-27T12:37:26.419Z,-3.80
2019-01-27T12:39:55.766Z,-3.70
2019-01-27T12:42:25.167Z,-3.70
2019-01-27T12:44:54.499Z,-3.70
2019-01-27T12:47:23.836Z,-3.80
2019-01-27T12:49:53.174Z,-3.80
2019-01-27T12:52:22.518Z,-3.70
2019-01-27T12:54:51.914Z,-3.70
2019-01-27T12:57:21.311Z,-3.70
2019-01-27T12:59:50.739Z,-3.80
2019-01-27T13:02:20.070Z,-3.80
2019-01-27T13:04:49.474Z,-3.70
2019-01-27T13:07:18.818Z,-3.80
2019-01-27T13:09:48.167Z,-3.70
2019-01-27T13:12:18.383Z,-3.80
2019-01-27T13:14:47.726Z,-3.70
2019-01-27T13:17:17.058Z,-3.60
2019-01-27T13:19:49.745Z,-3.60
2019-01-27T13:22:17.444Z,-3.50
2019-01-27T13:24:46.884Z,-3.60
2019-01-27T13:27:16.231Z,-3.60
2019-01-27T13:29:45.569Z,-3.60
2019-01-27T13:32:14.898Z,-3.50
2019-01-27T13:34:44.230Z,-3.50
2019-01-27T13:37:13.601Z,-3.50
2019-01-27T13:40:02.051Z,-3.50
2019-01-27T13:42:31.410Z,-3.50
2019-01-27T13:45:00.839Z,-3.50
2019-01-27T13:47:30.173Z,-3.50
2019-01-27T13:49:59.603Z,-3.40
2019-01-27T13:52:48.033Z,-3.40
2019-01-27T13:55:20.001Z,-3.40
2019-01-27T13:57:49.343Z,-3.50
2019-01-27T14:00:23.946Z,-3.40
2019-01-27T14:03:12.341Z,-3.40
2019-01-27T14:05:41.787Z,-3.40
2019-01-27T14:08:30.168Z,-3.40
2019-01-27T14:10:59.503Z,-3.60
2019-01-27T14:13:47.958Z,-3.60
2019-01-27T14:16:17.299Z,-3.60
2019-01-27T14:19:05.682Z,-3.60
2019-01-27T14:27:45.525Z,-3.60
2019-01-27T14:30:35.222Z,-3.60
2019-01-27T14:48:09.400Z,-3.80
2019-01-27T14:50:57.870Z,-3.80
2019-01-27T14:53:46.263Z,-3.80
2019-01-27T15:02:26.407Z,-3.70
2019-01-27T15:04:55.730Z,-3.80
2019-01-27T15:07:44.156Z,-3.80
2019-01-27T15:10:15.594Z,-3.70
2019-01-27T15:13:03.978Z,-3.70
2019-01-27T15:15:52.366Z,-3.70
2019-01-27T15:18:40.760Z,-3.70
2019-01-27T15:21:30.544Z,-3.70
2019-01-27T15:23:59.875Z,-3.70
2019-01-27T15:26:29.261Z,-3.70
2019-01-27T15:28:58.614Z,-3.60
2019-01-27T15:31:27.947Z,-3.60
2019-01-27T15:33:57.363Z,-3.60
2019-01-27T15:36:26.694Z,-3.60
2019-01-27T15:38:56.031Z,-3.60
2019-01-27T15:41:25.462Z,-3.50
2019-01-27T15:43:54.879Z,-3.60
2019-01-27T15:46:24.246Z,-3.50
2019-01-27T15:49:12.622Z,-3.40
2019-01-27T15:51:41.960Z,-3.40
2019-01-27T15:57:01.114Z,-3.40
2019-01-27T15:59:30.489Z,-3.40
2019-01-27T16:02:18.911Z,-3.40
2019-01-27T16:04:48.291Z,-3.40
2019-01-27T16:07:36.743Z,-3.40
2019-01-27T16:10:07.352Z,-3.40
2019-01-27T16:12:55.930Z,-3.40
2019-01-27T16:15:40.547Z,-3.40
2019-01-27T16:18:09.879Z,-3.30
2019-01-27T16:20:39.414Z,-3.30
2019-01-27T16:26:39.326Z,-3.20
2019-01-27T16:29:08.674Z,-3.20
2019-01-27T16:31:44.698Z,-3.20
2019-01-27T16:34:36.466Z,-3.10
2019-01-27T16:37:05.902Z,-3.10
2019-01-27T16:39:54.274Z,-3.10
2019-01-27T16:42:23.624Z,-3.10
2019-01-27T16:44:53.115Z,-3.00
2019-01-27T16:47:41.566Z,-3.10
2019-01-27T16:50:13.691Z,-3.10
2019-01-27T16:53:02.138Z,-3.00
2019-01-27T16:55:50.542Z,-3.00
2019-01-27T16:58:19.876Z,-2.90
2019-01-27T17:00:49.279Z,-2.90
2019-01-27T17:03:18.627Z,-2.90
2019-01-27T17:05:47.954Z,-2.90
2019-01-27T17:08:17.303Z,-2.90
2019-01-27T17:10:46.630Z,-2.80
2019-01-27T17:13:15.975Z,-2.80
2019-01-27T17:15:45.310Z,-2.80
2019-01-27T17:18:14.638Z,-2.80
2019-01-27T17:20:43.986Z,-2.80
2019-01-27T17:23:13.318Z,-2.80
2019-01-27T17:25:42.655Z,-2.80
2019-01-27T17:28:12.059Z,-2.70
2019-01-27T17:30:41.399Z,-2.70
2019-01-27T17:33:29.784Z,-2.70
2019-01-27T17:35:59.119Z,-2.70
2019-01-27T17:38:28.443Z,-2.60
2019-01-27T17:40:57.780Z,-2.60
2019-01-27T17:43:27.195Z,-2.70
2019-01-27T17:45:56.554Z,-2.70
2019-01-27T17:48:25.954Z,-2.70
2019-01-27T17:50:55.297Z,-2.70
2019-01-27T17:53:24.883Z,-2.60
2019-01-27T17:55:54.215Z,-2.70
2019-01-27T17:59:03.103Z,-2.70
2019-01-27T18:02:03.468Z,-2.60
2019-01-27T18:04:49.434Z,-2.60
2019-01-27T18:07:46.508Z,-2.60
2019-01-27T18:10:33.238Z,-2.60
2019-01-27T18:13:09.291Z,-2.60
2019-01-27T18:15:38.642Z,-2.60
2019-01-27T18:18:08.049Z,-2.50
2019-01-27T18:20:37.479Z,-2.60
2019-01-27T18:23:06.849Z,-2.60
2019-01-27T18:25:36.273Z,-2.60
2019-01-27T18:28:05.695Z,-2.50
2019-01-27T18:30:35.080Z,-2.50
2019-01-27T18:33:04.478Z,-2.50
2019-01-27T18:35:33.806Z,-2.50
2019-01-27T18:38:03.162Z,-2.50
2019-01-27T18:40:32.573Z,-2.50
2019-01-27T18:43:01.979Z,-2.40
2019-01-27T18:45:50.429Z,-2.40
2019-01-27T18:48:19.843Z,-2.40
2019-01-27T18:50:49.343Z,-2.40
2019-01-27T18:53:43.380Z,-2.40
2019-01-27T18:56:31.660Z,-2.40
2019-01-27T18:59:14.004Z,-2.30
2019-01-27T19:01:51.755Z,-2.40
2019-01-27T19:04:45.934Z,-2.40
2019-01-27T19:07:32.827Z,-2.40
2019-01-27T19:10:26.026Z,-2.40
2019-01-27T19:13:22.147Z,-2.30
2019-01-27T19:16:19.218Z,-2.30
2019-01-27T19:19:01.719Z,-2.30
2019-01-27T19:21:49.995Z,-2.20
2019-01-27T19:24:38.306Z,-2.20
2019-01-27T19:27:19.123Z,-2.10
2019-01-27T19:29:54.242Z,-2.00
2019-01-27T19:32:45.279Z,-1.90
2019-01-27T19:35:33.470Z,-2.00
2019-01-27T19:38:15.427Z,-2.00
2019-01-27T19:47:15.585Z,-2.00
2019-01-27T19:50:06.723Z,-1.90
2019-01-27T19:53:10.222Z,-1.90
2019-01-27T19:55:57.226Z,-1.90
2019-01-27T19:58:45.528Z,-1.90
2019-01-27T20:01:44.948Z,-1.90
2019-01-27T20:04:36.006Z,-1.90
2019-01-27T20:07:27.027Z,-1.90
2019-01-27T20:10:33.121Z,-1.80
2019-01-27T20:13:20.038Z,-1.80
2019-01-27T20:16:20.287Z,-1.80
2019-01-27T20:19:10.897Z,-1.80
2019-01-27T20:22:08.114Z,-1.90
2019-01-27T20:24:48.103Z,-1.90
2019-01-27T20:27:33.867Z,-1.80
2019-01-27T20:30:33.840Z,-1.80
2019-01-27T20:33:31.036Z,-1.80
2019-01-27T20:36:08.661Z,-1.80
2019-01-27T20:38:59.611Z,-1.80
2019-01-27T20:41:50.805Z,-1.80
2019-01-27T20:44:32.018Z,-1.90
2019-01-27T20:47:20.338Z,-1.80
2019-01-27T20:49:55.779Z,-1.80
2019-01-27T20:52:36.377Z,-1.80
2019-01-27T20:55:24.720Z,-1.80
2019-01-27T20:58:15.638Z,-1.80
2019-01-27T21:01:06.860Z,-1.80
2019-01-27T21:03:47.618Z,-1.80
2019-01-27T21:06:30.067Z,-1.80
2019-01-27T21:09:10.083Z,-1.80
2019-01-27T21:11:58.351Z,-1.80
2019-01-27T21:15:01.580Z,-1.70
2019-01-27T21:18:02.042Z,-1.80
2019-01-27T21:20:31.405Z,-1.80
2019-01-27T21:23:00.742Z,-1.80
2019-01-27T21:25:30.091Z,-1.80
2019-01-27T21:27:59.430Z,-1.80
2019-01-27T21:30:28.770Z,-1.80
2019-01-27T21:32:58.112Z,-1.80
2019-01-27T21:35:27.527Z,-1.80
2019-01-27T21:37:56.861Z,-1.90
2019-01-27T21:40:26.194Z,-1.80
2019-01-27T21:42:55.534Z,-1.90
2019-01-27T21:45:26.258Z,-1.90
2019-01-27T21:47:55.775Z,-1.90
2019-01-27T21:50:25.187Z,-1.90
2019-01-27T21:52:54.584Z,-1.90
2019-01-27T21:55:23.906Z,-1.90
2019-01-27T21:57:53.260Z,-1.90
2019-01-27T22:00:23.570Z,-1.90
2019-01-27T22:02:52.990Z,-2.00
2019-01-27T22:05:22.362Z,-1.90
2019-01-27T22:07:51.698Z,-1.90
2019-01-27T22:10:21.043Z,-1.90
2019-01-27T22:12:50.447Z,-1.90
2019-01-27T22:15:19.813Z,-1.90
2019-01-27T22:17:49.219Z,-1.90
2019-01-27T22:20:18.556Z,-1.90
2019-01-27T22:22:47.971Z,-1.90
2019-01-27T22:25:17.317Z,-1.90
2019-01-27T22:27:46.651Z,-1.90
2019-01-27T22:30:35.034Z,-1.90
2019-01-27T22:33:04.380Z,-1.90
2019-01-27T22:35:33.700Z,-1.90
2019-01-27T22:38:03.034Z,-1.90
2019-01-27T22:40:32.367Z,-1.90
2019-01-27T22:43:01.708Z,-1.90
2019-01-27T22:45:50.171Z,-1.90
2019-01-27T22:48:19.499Z,-1.90
2019-01-27T22:50:48.827Z,-1.90
2019-01-27T22:53:18.162Z,-1.90
2019-01-27T22:55:47.501Z,-1.90
2019-01-27T22:58:16.922Z,-1.90
2019-01-27T23:01:01.821Z,-1.90
2019-01-27T23:03:33.767Z,-1.90
2019-01-27T23:06:03.111Z,-1.90
2019-01-27T23:08:32.439Z,-1.90
2019-01-27T23:11:01.779Z,-1.80
2019-01-27T23:13:31.192Z,-1.80
2019-01-27T23:16:19.622Z,-1.80
2019-01-27T23:18:48.954Z,-1.80
2019-01-27T23:21:18.266Z,-1.80
2019-01-27T23:23:47.618Z,-1.80
2019-01-27T23:26:16.963Z,-1.80
2019-01-27T23:28:46.300Z,-1.80
2019-01-27T23:31:15.706Z,-1.70
2019-01-27T23:33:45.055Z,-1.80
2019-01-27T23:36:14.570Z,-1.70
2019-01-27T23:38:43.903Z,-1.70
2019-01-27T23:41:13.240Z,-1.70
2019-01-27T23:44:01.622Z,-1.70
2019-01-27T23:46:49.998Z,-1.70
